Time;durP1;ratioP1;P1;durP2;ratioP2;P2;SDS_P1;SDS_P2;PMS_P1;PMS_P2;Temp;Humidity;BMP_temperature;BMP_pressure;BME280_temperature;BME280_humidity;BME280_pressure;Samples;Min_cycle;Max_cycle;Signal;HPM_P1;HPM_P2
2023/03/09 04:53:14;;;;;;;5.28;3.40;;;;;;;7.20;100.00;98567.94;5738091;28;20143;-85
2023/03/09 04:56:18;;;;;;;5.62;3.70;;;;;;;7.21;100.00;98574.09;5290003;33;35757;-85
2023/03/09 04:59:23;;;;;;;7.20;3.30;;;;;;;7.16;100.00;98574.69;5277738;33;33901;-85
2023/03/09 05:02:28;;;;;;;4.68;3.30;;;;;;;7.15;100.00;98569.56;5254299;33;34946;-85
2023/03/09 05:05:31;;;;;;;4.87;3.50;;;;;;;7.18;100.00;98577.19;5289963;33;35273;-85
2023/03/09 05:08:34;;;;;;;4.95;3.60;;;;;;;7.17;100.00;98576.37;5265684;33;34563;-85
2023/03/09 05:11:37;;;;;;;4.87;3.17;;;;;;;7.21;100.00;98577.59;5277465;33;34171;-85
2023/03/09 05:14:41;;;;;;;5.37;3.83;;;;;;;7.28;100.00;98582.97;5290235;33;33909;-84
2023/03/09 05:17:44;;;;;;;6.87;3.80;;;;;;;7.31;100.00;98574.53;5278258;33;33997;-84
2023/03/09 05:20:47;;;;;;;5.97;4.10;;;;;;;7.23;100.00;98569.38;5278593;33;34602;-84
2023/03/09 05:23:50;;;;;;;6.53;3.72;;;;;;;7.21;100.00;98571.44;5266345;33;34741;-84
2023/03/09 05:26:53;;;;;;;6.30;4.00;;;;;;;7.22;100.00;98578.41;5266779;33;34052;-84
2023/03/09 05:29:56;;;;;;;9.32;4.12;;;;;;;7.34;100.00;98573.31;5278337;33;35444;-85
2023/03/09 05:33:00;;;;;;;8.93;4.10;;;;;;;7.39;100.00;98590.41;5291628;33;34362;-83
2023/03/09 05:36:13;;;;;;;10.73;4.00;;;;;;;7.48;100.00;98586.53;5277189;33;34175;-85
2023/03/09 05:39:17;;;;;;;6.75;3.92;;;;;;;7.51;100.00;98593.34;5289391;33;34774;-85
2023/03/09 05:42:20;;;;;;;8.20;4.10;;;;;;;7.60;100.00;98583.25;5266278;33;33858;-85
2023/03/09 05:45:23;;;;;;;4.55;3.87;;;;;;;7.55;100.00;98572.38;5266147;33;35169;-85
2023/03/09 05:48:26;;;;;;;9.80;4.70;;;;;;;7.62;100.00;98576.69;5277484;33;33943;-85
2023/03/09 05:51:29;;;;;;;8.68;4.47;;;;;;;7.70;100.00;98589.88;5277407;33;35613;-85
2023/03/09 05:54:33;;;;;;;9.07;3.87;;;;;;;7.76;100.00;98574.88;5281816;33;33977;-88
2023/03/09 05:57:38;;;;;;;6.68;4.40;;;;;;;7.87;100.00;98574.25;5260456;33;34901;-89
2023/03/09 06:00:41;;;;;;;8.30;4.50;;;;;;;7.88;100.00;98577.75;5273041;33;33702;-89
2023/03/09 06:03:45;;;;;;;8.93;4.43;;;;;;;7.98;100.00;98582.69;5271531;33;34195;-85
2023/03/09 06:06:47;;;;;;;7.87;4.32;;;;;;;8.06;100.00;98567.25;5271565;33;34351;-85
2023/03/09 06:09:51;;;;;;;6.55;3.90;;;;;;;8.15;100.00;98557.16;5261983;33;34066;-85
2023/03/09 06:12:54;;;;;;;6.07;4.12;;;;;;;8.32;100.00;98544.97;5279106;33;34391;-85
2023/03/09 06:16:01;;;;;;;7.32;3.95;;;;;;;8.54;100.00;98558.16;5265020;33;34585;-85
2023/03/09 06:19:04;;;;;;;6.22;3.65;;;;;;;8.60;100.00;98565.38;5263775;33;35274;-85
2023/03/09 06:22:07;;;;;;;7.57;4.00;;;;;;;8.69;100.00;98572.16;5248539;33;34406;-85
2023/03/09 06:25:11;;;;;;;6.35;4.07;;;;;;;8.77;100.00;98574.59;5247480;33;33897;-85
2023/03/09 06:28:15;;;;;;;8.85;3.85;;;;;;;8.91;100.00;98583.44;5279724;33;33806;-85
2023/03/09 06:31:20;;;;;;;6.90;4.30;;;;;;;9.02;100.00;98588.16;5251895;33;34235;-84
2023/03/09 06:34:23;;;;;;;7.03;4.05;;;;;;;9.08;100.00;98583.81;5259357;33;34630;-84
2023/03/09 06:37:26;;;;;;;5.80;3.83;;;;;;;9.19;100.00;98583.16;5247949;33;35483;-85
2023/03/09 06:40:30;;;;;;;7.32;3.95;;;;;;;9.25;100.00;98584.97;5274487;33;33819;-85
2023/03/09 06:43:33;;;;;;;7.12;4.30;;;;;;;9.27;100.00;98590.13;5264432;33;35161;-85
2023/03/09 06:46:37;;;;;;;8.07;4.25;;;;;;;9.37;100.00;98587.00;5256490;33;35447;-85
2023/03/09 06:49:42;;;;;;;7.82;3.92;;;;;;;9.42;100.00;98588.00;5255807;33;33350;-85
2023/03/09 06:52:45;;;;;;;7.57;4.05;;;;;;;9.54;100.00;98593.53;5270566;33;34028;-85
2023/03/09 06:55:48;;;;;;;6.28;4.10;;;;;;;9.66;100.00;98613.28;5267416;33;34147;-85
2023/03/09 06:58:54;;;;;;;8.80;4.10;;;;;;;9.78;100.00;98613.44;5245829;33;33784;-85
2023/03/09 07:01:58;;;;;;;6.97;3.72;;;;;;;9.88;100.00;98610.25;5245890;33;34237;-86
2023/03/09 07:05:02;;;;;;;6.30;3.58;;;;;;;9.94;100.00;98609.38;5247930;33;34105;-85
2023/03/09 07:08:04;;;;;;;7.65;4.40;;;;;;;10.03;99.75;98609.94;5248005;33;34636;-85
2023/03/09 07:11:09;;;;;;;7.32;3.62;;;;;;;10.12;99.11;98595.19;5259816;33;34866;-85
2023/03/09 07:14:12;;;;;;;7.62;4.07;;;;;;;10.21;98.88;98602.78;5274733;33;34829;-85
2023/03/09 07:17:14;;;;;;;9.18;4.03;;;;;;;10.28;99.41;98601.94;5273258;33;35614;-85
2023/03/09 07:20:23;;;;;;;6.75;3.42;;;;;;;10.33;97.95;98599.44;5260251;33;34409;-85
2023/03/09 07:23:27;;;;;;;6.75;3.53;;;;;;;10.36;97.77;98607.06;5262415;33;34682;-85
2023/03/09 07:26:30;;;;;;;5.45;3.53;;;;;;;10.36;98.27;98607.06;5239281;33;33989;-85
2023/03/09 07:29:33;;;;;;;7.10;3.70;;;;;;;10.44;97.68;98607.59;5247403;33;34730;-85
2023/03/09 07:32:36;;;;;;;6.93;3.33;;;;;;;10.52;96.75;98625.31;5256861;33;34844;-85
2023/03/09 07:35:39;;;;;;;8.77;3.42;;;;;;;10.61;95.98;98629.37;5253496;33;33953;-85
2023/03/09 07:38:42;;;;;;;13.38;3.72;;;;;;;10.65;96.04;98621.69;5261294;33;33945;-85
2023/03/09 07:41:45;;;;;;;4.32;3.10;;;;;;;10.61;96.42;98648.19;5257494;33;32460;-85
2023/03/09 07:44:48;;;;;;;8.93;3.90;;;;;;;10.66;96.34;98650.25;5229754;33;34023;-85
2023/03/09 07:47:51;;;;;;;6.10;3.62;;;;;;;10.68;96.10;98642.78;5256343;33;33560;-83
2023/03/09 07:50:58;;;;;;;9.63;3.60;;;;;;;10.74;96.10;98623.06;5256873;33;34165;-84
2023/03/09 07:54:01;;;;;;;4.97;3.35;;;;;;;10.70;96.56;98621.84;5276243;33;34258;-84
2023/03/09 07:57:04;;;;;;;5.57;2.85;;;;;;;10.76;96.33;98628.19;5272359;33;35292;-85
2023/03/09 08:00:12;;;;;;;3.47;2.62;;;;;;;10.82;96.36;98628.16;5248284;33;35423;-87
2023/03/09 08:03:15;;;;;;;8.88;2.90;;;;;;;10.95;95.96;98635.25;5277111;33;34050;-88
2023/03/09 08:06:19;;;;;;;4.90;2.53;;;;;;;11.17;93.67;98630.25;5277993;33;33911;-84
2023/03/09 08:09:21;;;;;;;7.40;2.78;;;;;;;11.32;92.46;98624.50;5278245;33;34272;-84
2023/03/09 08:12:24;;;;;;;5.70;2.40;;;;;;;11.41;91.70;98625.84;5278598;33;33946;-85
2023/03/09 08:15:27;;;;;;;4.28;2.92;;;;;;;11.42;91.09;98627.47;5267462;33;33607;-84
2023/03/09 08:18:30;;;;;;;5.18;2.22;;;;;;;11.47;90.90;98651.87;5258190;33;34780;-84
2023/03/09 08:21:34;;;;;;;6.82;3.33;;;;;;;11.53;91.28;98647.47;5249775;33;33846;-84
2023/03/09 08:24:37;;;;;;;4.43;2.37;;;;;;;11.56;90.26;98664.00;5272674;33;33929;-84
2023/03/09 08:27:42;;;;;;;4.35;2.62;;;;;;;11.64;89.95;98678.19;5272488;33;33618;-83
2023/03/09 08:30:45;;;;;;;4.45;2.90;;;;;;;11.63;90.47;98685.47;5273470;33;34746;-84
2023/03/09 08:33:48;;;;;;;4.37;2.40;;;;;;;11.76;89.71;98688.00;5260515;33;34832;-83
2023/03/09 08:36:56;;;;;;;4.70;2.60;;;;;;;11.92;88.72;98697.37;5260441;33;34877;-85
2023/03/09 08:39:59;;;;;;;4.78;2.80;;;;;;;12.01;88.42;98693.28;5271899;33;33985;-83
2023/03/09 08:43:02;;;;;;;5.80;3.12;;;;;;;12.15;87.12;98674.25;5273012;33;34084;-84
2023/03/09 08:46:05;;;;;;;7.55;3.42;;;;;;;12.34;86.65;98656.09;5260136;33;33889;-85
2023/03/09 08:49:08;;;;;;;6.37;3.53;;;;;;;12.57;84.78;98664.22;5247420;33;34060;-85
2023/03/09 08:52:10;;;;;;;5.55;3.42;;;;;;;12.60;85.05;98661.06;5246710;33;35260;-83
2023/03/09 08:55:13;;;;;;;5.82;3.87;;;;;;;12.42;86.62;98678.16;5259095;33;34016;-85
2023/03/09 08:58:17;;;;;;;5.65;3.80;;;;;;;12.36;87.71;98686.38;5256426;33;34014;-85
2023/03/09 09:01:19;;;;;;;4.87;4.12;;;;;;;12.44;87.76;98677.97;5252066;33;34128;-84
2023/03/09 09:04:23;;;;;;;8.55;3.90;;;;;;;12.47;87.92;98664.81;5260030;33;34007;-84
2023/03/09 09:07:25;;;;;;;7.25;3.35;;;;;;;12.56;87.20;98668.00;5272543;33;35410;-83
2023/03/09 09:10:29;;;;;;;6.70;3.45;;;;;;;12.69;85.84;98686.69;5267077;33;33794;-82
2023/03/09 09:13:37;;;;;;;7.53;3.50;;;;;;;12.71;85.90;98671.06;5257751;33;33889;-84
2023/03/09 09:16:40;;;;;;;5.30;2.90;;;;;;;12.93;84.13;98674.00;5254959;33;34499;-83
2023/03/09 09:19:44;;;;;;;6.03;2.95;;;;;;;13.16;83.33;98683.16;5261345;33;33957;-82
2023/03/09 09:22:47;;;;;;;3.62;2.60;;;;;;;13.23;82.18;98685.75;5263452;33;34076;-82
2023/03/09 09:25:55;;;;;;;7.37;2.78;;;;;;;13.33;82.19;98691.41;5259922;33;33500;-83
2023/03/09 09:29:00;;;;;;;4.45;2.70;;;;;;;13.42;81.35;98699.97;5271182;33;33807;-83
2023/03/09 09:32:05;;;;;;;6.53;2.80;;;;;;;13.59;81.14;98700.88;5247647;33;33788;-83
2023/03/09 09:35:08;;;;;;;6.75;2.72;;;;;;;13.71;79.67;98690.84;5270412;33;35429;-83
2023/03/09 09:38:11;;;;;;;6.40;2.80;;;;;;;13.95;79.15;98688.06;5253122;33;34778;-83
2023/03/09 09:41:37;;;;;;;7.20;3.08;;;;;;;14.14;77.26;98689.50;5259485;33;33995;-82
2023/03/09 09:44:48;;;;;;;6.62;3.25;;;;;;;14.03;77.74;98674.97;5271759;33;35377;-85
2023/03/09 09:47:54;;;;;;;9.55;2.80;;;;;;;14.11;77.42;98678.34;5274533;33;34900;-83
2023/03/09 09:51:25;;;;;;;5.55;2.83;;;;;;;14.16;77.82;98687.41;5260348;33;33770;-84
2023/03/09 09:55:00;;;;;;;5.70;2.65;;;;;;;14.34;77.82;98702.59;5272117;33;33854;-83
2023/03/09 09:58:09;;;;;;;7.60;2.58;;;;;;;14.81;74.38;98679.84;5270270;33;35015;-83
2023/03/09 10:01:20;;;;;;;3.47;2.50;;;;;;;14.83;74.46;98677.69;5274781;33;34093;-83
2023/03/09 10:04:33;;;;;;;7.87;2.80;;;;;;;15.09;72.73;98685.16;5272256;33;33933;-83
2023/03/09 10:07:38;;;;;;;5.35;2.58;;;;;;;15.13;71.60;98686.31;5272779;33;34196;-84
2023/03/09 10:10:43;;;;;;;6.87;2.55;;;;;;;15.00;73.50;98696.66;5269246;33;33985;-83
2023/03/09 10:13:50;;;;;;;5.28;2.60;;;;;;;15.08;72.56;98704.38;5255796;33;34272;-83
2023/03/09 10:16:59;;;;;;;12.40;2.78;;;;;;;15.32;72.40;98710.41;5272628;33;33831;-83
2023/03/09 10:20:13;;;;;;;4.53;2.47;;;;;;;15.74;69.98;98710.75;5270177;33;33675;-83
2023/03/09 10:23:27;;;;;;;4.25;2.60;;;;;;;15.87;68.35;98701.41;5265279;33;34157;-84
2023/03/09 10:26:49;;;;;;;5.68;2.45;;;;;;;15.75;69.56;98701.53;5279227;33;34116;-83
2023/03/09 10:30:07;;;;;;;8.27;2.55;;;;;;;16.06;68.74;98710.84;5282272;33;34980;-84
2023/03/09 10:33:19;;;;;;;5.20;2.60;;;;;;;16.27;68.29;98711.06;5285275;33;34357;-84
2023/03/09 10:36:36;;;;;;;6.25;2.85;;;;;;;16.40;66.74;98710.66;5289072;33;35358;-84
2023/03/09 10:39:43;;;;;;;4.72;2.50;;;;;;;16.47;67.17;98710.47;5286297;33;35223;-84
2023/03/09 10:42:47;;;;;;;4.82;2.67;;;;;;;16.34;66.91;98714.38;5274291;33;35226;-84
2023/03/09 10:45:50;;;;;;;4.20;2.50;;;;;;;16.59;67.25;98713.84;5273641;33;34830;-84
2023/03/09 10:49:10;;;;;;;4.20;2.28;;;;;;;16.95;64.55;98712.25;5282014;33;34566;-84
2023/03/09 10:52:18;;;;;;;2.00;1.70;;;;;;;17.33;62.54;98715.78;5287557;33;33770;-84
2023/03/09 10:55:31;;;;;;;2.45;2.03;;;;;;;17.38;62.93;98715.81;5284276;33;34543;-84
2023/03/09 10:58:34;;;;;;;1.58;1.48;;;;;;;17.72;60.58;98715.41;5290651;33;35640;-84
2023/03/09 11:01:40;;;;;;;4.18;1.65;;;;;;;17.93;59.13;98713.66;5268028;33;34206;-84
2023/03/09 11:04:43;;;;;;;3.45;1.90;;;;;;;18.18;58.89;98723.81;5285362;33;34231;-84
2023/03/09 11:07:52;;;;;;;1.83;1.45;;;;;;;17.79;58.26;98716.03;5260937;33;35017;-84
2023/03/09 11:11:19;;;;;;;1.77;1.67;;;;;;;17.76;58.63;98713.81;5243259;33;33983;-84
2023/03/09 11:14:29;;;;;;;3.50;1.75;;;;;;;17.88;59.51;98702.75;5255140;33;34227;-88
2023/03/09 11:17:35;;;;;;;6.62;1.62;;;;;;;18.07;57.02;98694.91;5277598;33;33602;-88
2023/03/09 11:20:38;;;;;;;4.30;1.70;;;;;;;18.24;56.17;98702.84;5291486;33;34359;-85
2023/03/09 11:23:47;;;;;;;4.25;2.08;;;;;;;18.15;56.37;98701.72;5262623;33;34025;-84
2023/03/09 11:27:02;;;;;;;4.93;2.60;;;;;;;17.78;57.26;98706.22;5284909;33;34067;-84
2023/03/09 11:30:15;;;;;;;4.40;2.45;;;;;;;17.43;57.49;98704.97;5289208;33;34322;-84
2023/03/09 11:33:19;;;;;;;3.90;2.75;;;;;;;17.48;57.00;98711.50;5281091;33;34681;-84
2023/03/09 11:36:28;;;;;;;2.50;2.22;;;;;;;17.36;57.42;98717.16;5261481;33;33260;-84
2023/03/09 11:39:41;;;;;;;3.50;2.40;;;;;;;17.49;57.76;98716.69;5279234;33;35466;-84
2023/03/09 11:43:15;;;;;;;3.65;2.50;;;;;;;17.61;57.47;98740.97;5282558;33;35466;-84
2023/03/09 11:46:19;;;;;;;4.70;2.53;;;;;;;18.00;56.55;98736.00;5259580;33;34747;-84
2023/03/09 11:49:26;;;;;;;7.82;2.60;;;;;;;17.88;54.72;98744.41;5299924;33;34056;-84
2023/03/09 11:52:56;;;;;;;3.42;2.00;;;;;;;17.76;53.21;98738.31;5290144;33;35449;-84
2023/03/09 11:56:15;;;;;;;2.10;1.90;;;;;;;17.65;52.41;98744.78;5279301;33;34091;-84
2023/03/09 11:59:29;;;;;;;4.62;2.30;;;;;;;17.97;51.72;98754.78;5274552;33;34024;-89
2023/03/09 12:02:57;;;;;;;5.03;2.47;;;;;;;18.59;50.03;98751.94;5261875;33;33912;-84
2023/03/09 12:06:11;;;;;;;4.87;2.10;;;;;;;18.84;48.93;98757.72;5275425;33;35464;-84
2023/03/09 12:09:54;;;;;;;6.03;2.08;;;;;;;19.10;48.49;98753.94;5274011;33;34073;-84
2023/03/09 12:13:03;;;;;;;3.62;1.90;;;;;;;18.55;49.72;98771.84;5279640;33;34400;-84
2023/03/09 12:16:10;;;;;;;4.75;2.17;;;;;;;18.09;51.72;98772.53;5270952;33;35538;-83
2023/03/09 12:19:18;;;;;;;3.80;1.92;;;;;;;17.79;52.95;98775.13;5274602;33;33782;-84
2023/03/09 12:22:38;;;;;;;2.42;1.73;;;;;;;18.00;53.01;98782.28;5279399;33;34020;-84
2023/03/09 12:25:56;;;;;;;4.10;1.90;;;;;;;18.06;51.95;98780.41;5275934;33;33779;-84
2023/03/09 12:29:04;;;;;;;3.65;1.80;;;;;;;17.90;52.13;98796.69;5278964;33;34453;-84
2023/03/09 12:32:33;;;;;;;4.05;1.70;;;;;;;17.63;52.33;98790.50;5269597;33;34932;-88
2023/03/09 12:35:38;;;;;;;2.22;1.85;;;;;;;17.58;52.61;98798.63;5269792;33;34330;-84
2023/03/09 12:38:41;;;;;;;2.08;1.60;;;;;;;17.54;52.54;98801.06;5269586;33;34010;-84
2023/03/09 12:42:00;;;;;;;2.05;1.55;;;;;;;17.56;51.72;98798.91;5267271;33;34695;-84
2023/03/09 12:45:27;;;;;;;1.83;1.37;;;;;;;18.36;49.29;98798.78;5269354;33;33878;-84
2023/03/09 12:48:33;;;;;;;2.10;1.25;;;;;;;19.11;46.20;98795.66;5264596;33;33746;-84
2023/03/09 12:51:38;;;;;;;3.75;1.20;;;;;;;18.93;45.78;98807.94;5269491;33;34098;-85
2023/03/09 12:54:42;;;;;;;4.03;1.08;;;;;;;18.74;45.02;98804.91;5267356;33;33818;-84
2023/03/09 12:57:46;;;;;;;4.10;1.48;;;;;;;18.58;44.17;98804.03;5272183;33;34028;-84
2023/03/09 13:01:05;;;;;;;4.32;1.23;;;;;;;18.11;45.07;98815.84;5271829;33;34943;-84
2023/03/09 13:04:13;;;;;;;0.98;0.95;;;;;;;17.84;45.26;98824.97;5274078;33;33482;-84
2023/03/09 13:07:25;;;;;;;6.60;1.02;;;;;;;17.94;45.17;98823.38;5276329;33;33946;-84
2023/03/09 13:10:34;;;;;;;4.72;0.95;;;;;;;17.68;45.70;98834.09;5259468;33;33698;-84
2023/03/09 13:13:40;;;;;;;4.93;1.12;;;;;;;17.68;45.65;98831.38;5272439;33;33775;-84
2023/03/09 13:16:43;;;;;;;5.35;1.17;;;;;;;17.28;46.21;98831.88;5271331;33;34388;-84
2023/03/09 13:19:54;;;;;;;3.47;1.08;;;;;;;17.31;45.72;98834.06;5272611;33;33992;-84
2023/03/09 13:22:57;;;;;;;1.10;0.98;;;;;;;17.45;46.06;98833.38;5272621;33;34058;-88
2023/03/09 13:26:14;;;;;;;3.75;1.15;;;;;;;17.30;46.41;98827.81;5250261;33;33974;-84
2023/03/09 13:29:23;;;;;;;2.30;0.93;;;;;;;17.10;47.06;98842.06;5289565;33;34539;-84
2023/03/09 13:32:28;;;;;;;1.33;0.93;;;;;;;16.85;47.76;98847.25;5283650;33;34337;-84
2023/03/09 13:35:48;;;;;;;2.37;0.95;;;;;;;16.69;48.02;98851.69;5271413;33;34149;-84
2023/03/09 13:38:59;;;;;;;1.48;1.10;;;;;;;17.03;47.84;98857.78;5270783;33;34490;-84
2023/03/09 13:42:06;;;;;;;1.80;1.00;;;;;;;17.55;46.21;98861.72;5287148;33;35511;-84
2023/03/09 13:45:19;;;;;;;2.97;1.17;;;;;;;17.74;46.04;98873.84;5289046;33;34156;-84
2023/03/09 13:48:22;;;;;;;1.37;1.00;;;;;;;17.15;46.73;98866.59;5282597;33;34630;-84
2023/03/09 13:51:39;;;;;;;1.52;0.88;;;;;;;17.43;46.64;98876.38;5273650;33;34621;-84
2023/03/09 13:55:16;;;;;;;1.52;1.10;;;;;;;17.89;45.26;98882.16;5257483;33;34187;-84
2023/03/09 13:58:24;;;;;;;4.30;1.10;;;;;;;17.58;44.84;98894.72;5265825;33;34098;-84
2023/03/09 14:01:29;;;;;;;3.62;0.98;;;;;;;17.55;44.50;98884.34;5270423;33;35283;-84
2023/03/09 14:04:34;;;;;;;3.75;1.10;;;;;;;17.43;44.02;98889.97;5277953;33;34568;-84
2023/03/09 14:07:44;;;;;;;3.30;0.98;;;;;;;16.90;45.47;98886.16;5269789;33;34705;-84
2023/03/09 14:10:48;;;;;;;3.12;1.08;;;;;;;16.85;46.06;98907.03;5273510;33;34924;-88
2023/03/09 14:13:59;;;;;;;0.73;0.62;;;;;;;16.70;46.76;98907.66;5274782;33;33627;-88
2023/03/09 14:17:03;;;;;;;1.05;0.80;;;;;;;16.51;46.64;98904.47;5272736;33;34024;-84
2023/03/09 14:20:06;;;;;;;5.30;0.85;;;;;;;16.49;46.21;98920.19;5259572;33;34336;-84
2023/03/09 14:23:33;;;;;;;3.42;1.05;;;;;;;16.47;45.65;98909.59;5286579;33;33966;-84
2023/03/09 14:26:36;;;;;;;3.47;1.17;;;;;;;16.43;45.35;98903.00;5290350;33;33814;-83
2023/03/09 14:29:40;;;;;;;2.37;0.90;;;;;;;16.17;46.57;98923.56;5290329;33;33939;-84
2023/03/09 14:33:02;;;;;;;3.83;0.93;;;;;;;16.26;45.83;98910.37;5279909;33;35247;-85
2023/03/09 14:36:18;;;;;;;2.45;1.00;;;;;;;16.28;46.57;98905.50;5300407;33;34358;-84
2023/03/09 14:39:30;;;;;;;1.95;0.75;;;;;;;16.44;45.36;98892.94;5262885;33;34515;-84
2023/03/09 14:42:35;;;;;;;4.35;1.02;;;;;;;16.49;45.80;98901.97;5272240;33;34845;-84
2023/03/09 14:45:37;;;;;;;2.28;0.90;;;;;;;16.40;45.90;98903.50;5260224;33;34084;-84
2023/03/09 14:48:41;;;;;;;1.25;1.08;;;;;;;16.30;46.29;98898.75;5264308;33;35380;-84
2023/03/09 14:51:45;;;;;;;1.33;0.60;;;;;;;16.23;46.48;98900.84;5283602;33;34797;-84
2023/03/09 14:54:50;;;;;;;2.33;0.85;;;;;;;16.14;45.79;98885.22;5259127;33;33964;-85
2023/03/09 14:57:53;;;;;;;2.78;1.00;;;;;;;16.05;45.28;98880.22;5271540;33;35405;-85
2023/03/09 15:00:56;;;;;;;1.60;1.00;;;;;;;16.04;45.56;98889.44;5252478;33;278802;-85
2023/03/09 15:03:59;;;;;;;2.15;1.00;;;;;;;16.06;44.34;98883.78;5261767;33;34200;-85
2023/03/09 15:07:03;;;;;;;2.40;0.90;;;;;;;16.10;44.17;98879.47;5260362;33;33954;-85
2023/03/09 15:10:06;;;;;;;2.37;1.17;;;;;;;16.02;44.87;98893.47;5274476;33;34147;-84
2023/03/09 15:13:09;;;;;;;2.35;0.88;;;;;;;16.01;44.92;98891.84;5271657;33;35077;-84
2023/03/09 15:16:12;;;;;;;1.62;0.80;;;;;;;16.07;44.26;98877.28;5254820;33;34796;-85
2023/03/09 15:19:20;;;;;;;1.42;0.88;;;;;;;16.06;44.64;98895.47;5264707;33;34023;-85
2023/03/09 15:22:23;;;;;;;2.03;0.93;;;;;;;16.14;44.24;98896.91;5264279;33;33892;-85
2023/03/09 15:25:26;;;;;;;2.92;1.00;;;;;;;16.32;43.59;98898.50;5262367;33;33616;-88
2023/03/09 15:28:28;;;;;;;2.08;1.00;;;;;;;16.38;44.15;98896.66;5264789;33;33738;-90
2023/03/09 15:31:31;;;;;;;1.45;0.85;;;;;;;16.24;43.41;98899.78;5253211;33;33964;-89
2023/03/09 15:34:36;;;;;;;1.45;0.82;;;;;;;16.06;45.10;98900.06;5285293;33;33877;-91
2023/03/09 15:37:39;;;;;;;3.17;1.02;;;;;;;15.87;44.35;98905.75;5282062;33;34841;-86
2023/03/09 15:40:42;;;;;;;3.67;0.93;;;;;;;15.67;45.28;98910.84;5271178;33;34909;-87
2023/03/09 15:43:46;;;;;;;2.87;1.25;;;;;;;15.52;45.09;98916.84;5272290;33;33811;-87
2023/03/09 15:46:49;;;;;;;3.42;0.90;;;;;;;15.48;45.37;98914.88;5273860;33;34839;-87
2023/03/09 15:49:52;;;;;;;3.80;0.80;;;;;;;15.39;44.67;98919.88;5269975;33;35007;-87
2023/03/09 15:52:56;;;;;;;2.17;1.10;;;;;;;15.42;44.82;98924.81;5254437;33;34037;-87
2023/03/09 15:56:08;;;;;;;1.42;0.80;;;;;;;15.35;45.02;98929.56;5252336;33;33969;-87
2023/03/09 15:59:11;;;;;;;2.47;1.25;;;;;;;15.28;45.61;98939.75;5276558;33;34028;-87
2023/03/09 16:02:14;;;;;;;3.35;1.35;;;;;;;15.30;45.23;98951.19;5263538;33;34759;-86
2023/03/09 16:05:18;;;;;;;3.40;1.12;;;;;;;15.24;45.33;98954.84;5246604;33;33875;-86
2023/03/09 16:08:21;;;;;;;2.42;0.85;;;;;;;15.24;45.78;98960.25;5246028;33;33829;-86
2023/03/09 16:11:24;;;;;;;2.33;0.80;;;;;;;15.16;45.39;98954.19;5258589;33;34432;-86
2023/03/09 16:14:28;;;;;;;2.45;0.95;;;;;;;15.13;45.35;98968.22;5234921;33;34283;-86
2023/03/09 16:17:31;;;;;;;3.15;0.88;;;;;;;14.98;45.99;98976.06;5257873;33;34309;-87
2023/03/09 16:20:33;;;;;;;4.95;1.27;;;;;;;14.88;46.20;98986.69;5258631;33;34044;-86
2023/03/09 16:23:37;;;;;;;1.40;1.00;;;;;;;14.67;47.19;98991.69;5256229;33;34648;-87
2023/03/09 16:26:39;;;;;;;3.08;1.42;;;;;;;14.59;47.43;98996.63;5242469;33;33727;-87
2023/03/09 16:29:42;;;;;;;2.25;0.90;;;;;;;14.57;47.93;99005.00;5255731;33;34748;-87
2023/03/09 16:32:50;;;;;;;3.85;1.10;;;;;;;14.51;47.88;99008.66;5231139;33;33916;-87
2023/03/09 16:35:58;;;;;;;2.25;1.20;;;;;;;14.40;48.99;99009.47;5255665;33;34737;-86
2023/03/09 16:39:01;;;;;;;1.00;1.00;;;;;;;14.31;48.89;99019.84;5243117;33;33774;-86
2023/03/09 16:42:04;;;;;;;4.57;1.20;;;;;;;14.31;49.98;99013.59;5242788;33;33946;-87
2023/03/09 16:45:08;;;;;;;0.70;0.70;;;;;;;14.26;49.39;99027.81;5254135;33;34828;-87
2023/03/09 16:48:10;;;;;;;3.70;1.00;;;;;;;14.30;49.96;99045.22;5255326;33;34150;-86
2023/03/09 16:51:17;;;;;;;1.15;0.88;;;;;;;14.27;50.11;99032.16;5254139;33;35851;-87
2023/03/09 16:54:20;;;;;;;2.85;1.25;;;;;;;14.16;51.17;99039.25;5255130;33;33963;-86
2023/03/09 16:57:22;;;;;;;2.50;0.88;;;;;;;14.10;51.28;99051.00;5231536;33;34188;-86
2023/03/09 17:00:25;;;;;;;4.95;1.20;;;;;;;13.99;52.08;99057.22;5255336;33;34919;-87
2023/03/09 17:03:28;;;;;;;1.52;0.98;;;;;;;13.96;52.14;99068.50;5242800;33;34580;-86
2023/03/09 17:06:32;;;;;;;1.05;0.93;;;;;;;13.89;52.80;99055.06;5255230;33;34001;-87
2023/03/09 17:09:35;;;;;;;2.33;0.75;;;;;;;13.86;53.13;99062.81;5242710;33;35117;-86
2023/03/09 17:12:38;;;;;;;3.08;0.98;;;;;;;13.71;53.38;99061.38;5242993;33;35039;-86
2023/03/09 17:15:41;;;;;;;3.55;0.90;;;;;;;13.68;54.00;99056.41;5241250;33;34021;-87
2023/03/09 17:18:45;;;;;;;3.67;1.00;;;;;;;13.50;54.48;99080.81;5269209;33;35010;-87
2023/03/09 17:21:48;;;;;;;2.65;1.17;;;;;;;13.39;54.99;99087.81;5264819;33;34117;-87
2023/03/09 17:24:51;;;;;;;3.47;1.15;;;;;;;13.45;55.00;99096.91;5254913;33;33718;-86
2023/03/09 17:27:53;;;;;;;4.43;1.10;;;;;;;13.37;55.95;99100.75;5267861;33;34212;-87
2023/03/09 17:30:57;;;;;;;1.30;1.17;;;;;;;13.28;55.86;99102.94;5269916;33;35391;-87
2023/03/09 17:34:00;;;;;;;1.23;1.02;;;;;;;13.20;56.05;99102.37;5271509;33;35986;-91
2023/03/09 17:37:03;;;;;;;2.50;1.37;;;;;;;13.08;57.88;99113.12;5253438;33;35369;-91
2023/03/09 17:40:10;;;;;;;5.45;1.45;;;;;;;13.09;56.66;99117.47;5242588;33;33763;-91
2023/03/09 17:43:15;;;;;;;2.62;1.30;;;;;;;13.23;56.00;99115.44;5256040;33;33932;-87
2023/03/09 17:46:18;;;;;;;2.67;1.08;;;;;;;13.20;56.46;99113.19;5256232;33;34293;-87
2023/03/09 17:49:22;;;;;;;2.30;1.33;;;;;;;13.08;56.94;99113.12;5242147;33;34033;-87
2023/03/09 17:52:25;;;;;;;3.00;1.37;;;;;;;12.89;57.81;99118.50;5253370;33;33990;-87
2023/03/09 17:55:28;;;;;;;2.28;1.30;;;;;;;12.81;58.42;99124.22;5241831;33;33486;-87
2023/03/09 17:58:34;;;;;;;2.87;1.35;;;;;;;12.58;59.49;99126.72;5254733;33;33540;-87
2023/03/09 18:01:38;;;;;;;2.20;1.30;;;;;;;12.53;60.52;99126.56;5254388;33;34806;-87
2023/03/09 18:04:45;;;;;;;2.12;1.35;;;;;;;12.42;59.80;99126.22;5241911;33;34305;-87
2023/03/09 18:07:48;;;;;;;4.30;1.37;;;;;;;12.28;61.40;99132.75;5254771;33;35446;-87
